»·PEaware :: N720MM KMRY-KRDD

N720MM :: KMRY-KRDD

FLIGHT INFORMATION

Flight Status: Arrived
Operator: Privately registered:
United States
More flights under this callsign
Pilot: Daniel D. (10930)
Aircraft: BOEING 737-200
(B732)
More flights by this aircraft type
Origin: KMRY Monterey Peninsula
United States
Destination: KRDD Redding Mun
United States
More flights between these airports :: More routes between these airports
Route: +MRY5 SHOEY V27 GETER V25 RBL
File this flight plan on PilotEdge
Remarks:
Altitude:
(Current/Filed)
23,000ft
Speed:
(Current/Filed)
420kts
Departed: 28-Apr-20 04:50 PM
Arrived: 28-Apr-20 05:34 PM
Distance/Time
Traveled:
236nm/0:44
Distance/Time
To Go:
Arrived

Flight Plot

Page will automatically refresh every two minutes.

Flight plan parsing failed; only flown route is shown


Map Options




Map Legend


Flown Route
Filed Route
Departure Airport
Arrival Airport
Navaid (VOR, NDB)
Fix

Horizontal Profiles

Position Reports

Time Latitude Longitude Heading Altitude Ground
Speed
28-Apr-20 16:26 36.589263 -121.858192 343 213ft 0kts
28-Apr-20 16:27 36.589263 -121.858192 343 213ft 0kts
28-Apr-20 16:28 36.589263 -121.858192 343 213ft 0kts
28-Apr-20 16:29 36.589263 -121.858192 343 213ft 0kts
28-Apr-20 16:30 36.589263 -121.858192 343 213ft 0kts
28-Apr-20 16:31 36.589263 -121.858192 343 213ft 0kts
28-Apr-20 16:32 36.589263 -121.858192 343 213ft 0kts
28-Apr-20 16:33 36.589263 -121.858192 343 213ft 0kts
28-Apr-20 16:34 36.589263 -121.858192 343 213ft 0kts
28-Apr-20 16:35 36.589263 -121.858192 343 213ft 0kts
28-Apr-20 16:36 36.589263 -121.858192 343 213ft 0kts
28-Apr-20 16:37 36.589263 -121.858192 343 213ft 0kts
28-Apr-20 16:38 36.589263 -121.858192 343 213ft 0kts
28-Apr-20 16:39 36.589263 -121.858192 343 213ft 0kts
28-Apr-20 16:40 36.589263 -121.858192 343 213ft 0kts
28-Apr-20 16:41 36.589519 -121.855368 75 213ft 17kts
28-Apr-20 16:42 36.587890 -121.849555 111 213ft 18kts
28-Apr-20 16:43 36.585467 -121.842701 112 213ft 23kts
28-Apr-20 16:44 36.582907 -121.834993 105 213ft 15kts
28-Apr-20 16:45 36.582884 -121.834877 103 213ft 0kts
28-Apr-20 16:46 36.582884 -121.834877 103 213ft 0kts
28-Apr-20 16:47 36.582884 -121.834877 103 213ft 0kts
28-Apr-20 16:48 36.582881 -121.834865 103 213ft 1kts
28-Apr-20 16:49 36.584751 -121.837734 293 213ft 78kts
28-Apr-20 16:50 36.610217 -121.880800 343 2151ft 216kts
28-Apr-20 16:51 36.673726 -121.905748 343 5483ft 261kts
28-Apr-20 16:52 36.717015 -121.976371 278 8758ft 291kts
28-Apr-20 16:53 36.731696 -122.076460 279 11799ft 317kts
28-Apr-20 16:54 36.776665 -122.170815 324 14657ft 340kts
28-Apr-20 16:55 36.859022 -122.242550 320 16423ft 381kts
28-Apr-20 16:56 36.945308 -122.323768 321 18658ft 395kts
28-Apr-20 16:58 37.035236 -122.406275 322 20587ft 408kts
28-Apr-20 16:59 37.136351 -122.472968 335 22073ft 429kts
28-Apr-20 17:00 37.245774 -122.528880 351 22143ft 450kts
28-Apr-20 17:01 37.366818 -122.558500 349 22142ft 460kts
28-Apr-20 17:02 37.489768 -122.600115 345 22136ft 468kts
28-Apr-20 17:03 37.608980 -122.654190 326 22139ft 467kts
28-Apr-20 17:04 37.727545 -122.719656 339 22135ft 466kts
28-Apr-20 17:05 37.850121 -122.767744 339 22092ft 459kts
28-Apr-20 17:06 37.969433 -122.818676 338 22058ft 454kts
28-Apr-20 17:07 38.089233 -122.868847 343 22064ft 453kts
28-Apr-20 17:08 38.212560 -122.888069 351 22065ft 453kts
28-Apr-20 17:09 38.336368 -122.905287 348 22054ft 449kts
28-Apr-20 17:10 38.458940 -122.928439 349 22048ft 449kts
28-Apr-20 17:11 38.581966 -122.947724 350 22050ft 449kts
28-Apr-20 17:12 38.705561 -122.965169 357 22046ft 451kts
28-Apr-20 17:13 38.828890 -122.934202 11 22050ft 457kts
28-Apr-20 17:14 38.949631 -122.872250 22 22044ft 475kts
28-Apr-20 17:15 39.071828 -122.802067 22 22038ft 486kts
28-Apr-20 17:15 39.170411 -122.745253 22 22035ft 492kts
28-Apr-20 17:17 39.316957 -122.660458 22 22037ft 498kts
28-Apr-20 17:18 39.437005 -122.590648 22 22034ft 490kts
28-Apr-20 17:18 39.535977 -122.532128 22 20780ft 451kts
28-Apr-20 17:19 39.644320 -122.460034 18 18940ft 430kts
28-Apr-20 17:20 39.756831 -122.414148 13 16926ft 416kts
28-Apr-20 17:21 39.866197 -122.374917 13 14980ft 402kts
28-Apr-20 17:22 39.971389 -122.338734 14 12805ft 387kts
28-Apr-20 17:23 40.071533 -122.309688 9 10746ft 346kts
28-Apr-20 17:24 40.158501 -122.292441 8 7696ft 317kts
28-Apr-20 17:25 40.240042 -122.287943 356 5183ft 279kts
28-Apr-20 17:26 40.308529 -122.294208 358 4075ft 230kts
28-Apr-20 17:27 40.368880 -122.293768 0 3007ft 201kts
28-Apr-20 17:28 40.416573 -122.294573 356 2296ft 155kts
28-Apr-20 17:29 40.456683 -122.294547 0 1600ft 144kts
28-Apr-20 17:30 40.495050 -122.287976 29 1313ft 144kts
28-Apr-20 17:31 40.535032 -122.272509 351 1626ft 161kts
28-Apr-20 17:32 40.527106 -122.294910 178 904ft 137kts
28-Apr-20 17:33 40.501526 -122.295126 238 727ft 16kts
28-Apr-20 17:34 40.502298 -122.296421 317 727ft 17kts
28-Apr-20 17:35 40.507793 -122.298722 352 727ft 23kts

Navigation Log

Ident Type
Flight plan parsing failed, navigation log unavailable